Time,TemperatureF,DewpointF,PressureIn,WindDirection,WindDirectionDegrees,WindSpeedMPH,WindSpeedGustMPH,Humidity,HourlyPrecipIn,Conditions,Clouds,dailyrainin,SoftwareType,DateUTC
2013-03-26 00:03:00,35.0,29.0,29.55,NE,41,0.0,2.0,79,0.00,,,0.07,,2013-03-26 04:03:00,
2013-03-26 00:12:00,35.0,29.0,29.55,NE,41,0.0,2.0,79,0.00,,,0.07,,2013-03-26 04:12:00,
2013-03-26 00:23:00,35.0,29.0,29.54,NNE,30,0.0,4.0,79,0.00,,,0.07,,2013-03-26 04:23:00,
2013-03-26 00:33:00,35.0,29.0,29.54,NNE,30,0.0,0.0,79,0.00,,,0.07,,2013-03-26 04:33:00,
2013-03-26 00:43:00,35.0,29.0,29.54,NNE,30,0.0,0.0,79,0.00,,,0.07,,2013-03-26 04:43:00,
2013-03-26 00:53:00,35.0,30.0,29.55,NNE,30,0.0,0.0,81,0.00,,,0.07,,2013-03-26 04:53:00,
2013-03-26 01:02:00,35.0,30.0,29.56,NNE,30,0.0,1.0,82,0.00,,,0.07,,2013-03-26 05:02:00,
2013-03-26 01:12:00,35.0,30.0,29.56,NNE,30,0.0,1.0,82,0.00,,,0.07,,2013-03-26 05:12:00,
2013-03-26 01:22:00,35.0,31.0,29.57,NNE,30,0.0,1.0,84,0.00,,,0.07,,2013-03-26 05:22:00,
2013-03-26 01:32:00,34.0,30.0,29.56,NNE,30,0.0,1.0,86,0.00,,,0.07,,2013-03-26 05:32:00,
2013-03-26 01:42:00,34.0,30.0,29.56,NNE,30,0.0,1.0,86,0.00,,,0.07,,2013-03-26 05:42:00,
2013-03-26 01:52:00,34.0,30.0,29.56,NNE,30,0.0,1.0,86,0.00,,,0.07,,2013-03-26 05:52:00,
2013-03-26 02:02:00,34.0,31.0,29.57,North,360,1.0,2.0,87,0.00,,,0.07,,2013-03-26 06:02:00,
2013-03-26 02:12:00,34.0,31.0,29.57,North,360,1.0,2.0,87,0.00,,,0.07,,2013-03-26 06:12:00,
2013-03-26 02:22:00,34.0,30.0,29.57,North,355,0.0,3.0,86,0.00,,,0.07,,2013-03-26 06:22:00,
2013-03-26 02:32:00,34.0,30.0,29.58,NW,325,0.0,3.0,85,0.00,,,0.07,,2013-03-26 06:32:00,
2013-03-26 02:42:00,34.0,30.0,29.58,NW,325,0.0,3.0,85,0.00,,,0.07,,2013-03-26 06:42:00,
2013-03-26 02:52:00,34.0,30.0,29.58,NW,325,0.0,1.0,85,0.00,,,0.07,,2013-03-26 06:52:00,
2013-03-26 03:02:00,34.0,30.0,29.58,NW,325,0.0,2.0,86,0.00,,,0.07,,2013-03-26 07:02:00,
2013-03-26 03:12:00,34.0,30.0,29.58,NW,325,0.0,2.0,86,0.00,,,0.07,,2013-03-26 07:12:00,
2013-03-26 03:22:00,34.0,30.0,29.58,NW,325,0.0,2.0,86,0.00,,,0.07,,2013-03-26 07:22:00,
2013-03-26 03:33:00,34.0,30.0,29.59,NW,321,0.0,3.0,86,0.00,,,0.07,,2013-03-26 07:33:00,
2013-03-26 03:42:00,34.0,30.0,29.59,NW,321,0.0,3.0,86,0.00,,,0.07,,2013-03-26 07:42:00,
2013-03-26 03:53:00,34.0,30.0,29.59,West,271,0.0,3.0,85,0.00,,,0.07,,2013-03-26 07:53:00,
2013-03-26 04:02:00,34.0,30.0,29.59,West,271,0.0,2.0,85,0.00,,,0.07,,2013-03-26 08:02:00,
2013-03-26 04:12:00,34.0,30.0,29.59,West,271,0.0,2.0,85,0.00,,,0.07,,2013-03-26 08:12:00,
2013-03-26 04:22:00,34.0,30.0,29.60,West,271,1.0,3.0,85,0.00,,,0.07,,2013-03-26 08:22:00,
2013-03-26 04:32:00,34.0,30.0,29.60,West,271,0.0,2.0,86,0.00,,,0.07,,2013-03-26 08:32:00,
2013-03-26 04:42:00,34.0,30.0,29.60,West,271,0.0,2.0,86,0.00,,,0.07,,2013-03-26 08:42:00,
2013-03-26 04:52:00,33.0,29.0,29.60,West,271,0.0,3.0,86,0.00,,,0.07,,2013-03-26 08:52:00,
2013-03-26 05:02:00,33.0,29.0,29.60,West,271,0.0,3.0,86,0.00,,,0.07,,2013-03-26 09:02:00,
2013-03-26 05:12:00,33.0,29.0,29.60,West,271,0.0,3.0,86,0.00,,,0.07,,2013-03-26 09:12:00,
2013-03-26 05:22:00,34.0,30.0,29.60,West,271,1.0,3.0,85,0.00,,,0.07,,2013-03-26 09:22:00,
2013-03-26 05:33:00,34.0,30.0,29.62,West,271,0.0,1.0,85,0.00,,,0.07,,2013-03-26 09:33:00,
2013-03-26 05:43:00,34.0,30.0,29.62,West,271,0.0,1.0,85,0.00,,,0.07,,2013-03-26 09:43:00,
2013-03-26 05:52:00,34.0,30.0,29.62,West,271,0.0,1.0,85,0.00,,,0.07,,2013-03-26 09:52:00,
2013-03-26 06:03:00,34.0,30.0,29.62,West,271,0.0,1.0,84,0.00,,,0.07,,2013-03-26 10:03:00,
2013-03-26 06:12:00,34.0,30.0,29.62,West,271,0.0,1.0,84,0.00,,,0.07,,2013-03-26 10:12:00,
2013-03-26 06:22:00,34.0,29.0,29.63,West,271,0.0,2.0,83,0.00,,,0.07,,2013-03-26 10:22:00,
2013-03-26 06:32:00,34.0,29.0,29.63,West,271,0.0,3.0,82,0.00,,,0.07,,2013-03-26 10:32:00,
2013-03-26 06:42:00,34.0,29.0,29.63,West,271,0.0,3.0,82,0.00,,,0.07,,2013-03-26 10:42:00,
2013-03-26 06:53:00,34.0,29.0,29.63,West,271,0.0,1.0,82,0.00,,,0.07,,2013-03-26 10:53:00,
2013-03-26 07:03:00,34.0,29.0,29.64,West,271,0.0,3.0,82,0.00,,,0.07,,2013-03-26 11:03:00,
2013-03-26 07:12:00,34.0,29.0,29.64,West,271,0.0,3.0,82,0.00,,,0.07,,2013-03-26 11:12:00,
2013-03-26 07:22:00,34.0,29.0,29.65,WNW,287,1.0,4.0,81,0.00,,,0.07,,2013-03-26 11:22:00,
2013-03-26 07:32:00,34.0,28.0,29.65,WNW,302,1.0,4.0,80,0.00,,,0.07,,2013-03-26 11:32:00,
2013-03-26 07:42:00,34.0,28.0,29.65,WNW,302,1.0,4.0,80,0.00,,,0.07,,2013-03-26 11:42:00,
2013-03-26 07:52:00,35.0,29.0,29.66,NW,304,0.0,5.0,80,0.00,,,0.07,,2013-03-26 11:52:00,
2013-03-26 08:03:00,35.0,29.0,29.66,NW,304,0.0,5.0,80,0.00,,,0.07,,2013-03-26 12:03:00,
2013-03-26 08:12:00,35.0,30.0,29.66,WNW,295,0.0,5.0,81,0.00,,,0.07,,2013-03-26 12:12:00,
2013-03-26 08:22:00,35.0,30.0,29.67,WNW,287,2.0,5.0,81,0.00,,,0.07,,2013-03-26 12:22:00,
2013-03-26 08:32:00,35.0,29.0,29.68,WNW,290,1.0,6.0,80,0.00,,,0.07,,2013-03-26 12:32:00,
2013-03-26 08:42:00,35.0,29.0,29.68,WNW,290,1.0,6.0,80,0.00,,,0.07,,2013-03-26 12:42:00,
2013-03-26 08:52:00,35.0,29.0,29.68,NNW,330,1.0,6.0,78,0.00,,,0.07,,2013-03-26 12:52:00,
2013-03-26 09:03:00,36.0,30.0,29.68,NNW,343,0.0,7.0,78,0.00,,,0.07,,2013-03-26 13:03:00,
2013-03-26 09:12:00,36.0,30.0,29.68,NNW,343,0.0,7.0,78,0.00,,,0.07,,2013-03-26 13:12:00,
2013-03-26 09:22:00,36.0,29.0,29.69,NNW,329,1.0,6.0,77,0.00,,,0.07,,2013-03-26 13:22:00,
2013-03-26 09:32:00,36.0,29.0,29.69,NW,325,1.0,9.0,76,0.00,,,0.07,,2013-03-26 13:32:00,
2013-03-26 09:42:00,36.0,29.0,29.69,NW,325,1.0,9.0,76,0.00,,,0.07,,2013-03-26 13:42:00,
2013-03-26 09:52:00,37.0,30.0,29.69,NW,317,3.0,10.0,75,0.00,,,0.07,,2013-03-26 13:52:00,
2013-03-26 10:02:00,38.0,30.0,29.69,NNW,340,4.0,10.0,74,0.00,,,0.07,,2013-03-26 14:02:00,
2013-03-26 10:12:00,38.0,30.0,29.69,NNW,340,4.0,10.0,74,0.00,,,0.07,,2013-03-26 14:12:00,
2013-03-26 10:22:00,39.0,31.0,29.70,North,355,3.0,12.0,72,0.00,,,0.07,,2013-03-26 14:22:00,
2013-03-26 10:32:00,40.0,31.0,29.70,NW,311,3.0,13.0,70,0.00,,,0.07,,2013-03-26 14:32:00,
2013-03-26 10:42:00,40.0,31.0,29.70,NW,311,3.0,13.0,70,0.00,,,0.07,,2013-03-26 14:42:00,
2013-03-26 10:52:00,41.0,31.0,29.70,NW,305,4.0,11.0,68,0.00,,,0.07,,2013-03-26 14:52:00,
2013-03-26 11:02:00,42.0,31.0,29.70,NW,323,5.0,11.0,66,0.00,,,0.07,,2013-03-26 15:02:00,
2013-03-26 11:12:00,42.0,31.0,29.70,NW,323,5.0,11.0,66,0.00,,,0.07,,2013-03-26 15:12:00,
2013-03-26 11:22:00,42.0,30.0,29.69,NNE,13,8.0,17.0,63,0.00,,,0.07,,2013-03-26 15:22:00,
2013-03-26 11:33:00,43.0,30.0,29.70,North,355,3.0,11.0,61,0.00,,,0.07,,2013-03-26 15:33:00,
2013-03-26 11:43:00,43.0,30.0,29.70,North,355,3.0,11.0,61,0.00,,,0.07,,2013-03-26 15:43:00,
2013-03-26 11:52:00,44.0,30.0,29.70,NNE,20,6.0,16.0,57,0.00,,,0.07,,2013-03-26 15:52:00,
2013-03-26 12:03:00,45.0,30.0,29.70,NE,55,5.0,12.0,55,0.00,,,0.07,,2013-03-26 16:03:00,
2013-03-26 12:13:00,45.0,30.0,29.70,NE,55,5.0,12.0,55,0.00,,,0.07,,2013-03-26 16:13:00,
2013-03-26 12:22:00,44.0,28.0,29.70,NNE,29,4.0,12.0,54,0.00,,,0.07,,2013-03-26 16:22:00,
2013-03-26 12:32:00,45.0,28.0,29.70,NNW,334,3.0,8.0,52,0.00,,,0.06,,2013-03-26 16:32:00,
2013-03-26 12:42:00,45.0,28.0,29.70,NNW,334,3.0,8.0,52,0.00,,,0.06,,2013-03-26 16:42:00,
2013-03-26 12:54:00,44.0,27.0,29.70,WNW,303,3.0,11.0,51,0.00,,,0.06,,2013-03-26 16:54:00,
2013-03-26 13:02:00,45.0,27.0,29.69,NNE,19,4.0,10.0,49,0.00,,,0.06,,2013-03-26 17:02:00,
2013-03-26 13:12:00,45.0,27.0,29.69,NNE,19,4.0,10.0,49,0.00,,,0.06,,2013-03-26 17:12:00,
2013-03-26 13:23:00,46.0,27.0,29.70,NNE,32,2.0,13.0,47,0.00,,,0.06,,2013-03-26 17:23:00,
2013-03-26 13:32:00,47.0,27.0,29.70,NW,316,5.0,12.0,46,0.00,,,0.02,,2013-03-26 17:32:00,
2013-03-26 13:42:00,47.0,27.0,29.70,NW,316,5.0,12.0,46,0.00,,,0.02,,2013-03-26 17:42:00,
2013-03-26 13:53:00,47.0,26.0,29.69,NNW,345,5.0,10.0,44,0.00,,,0.02,,2013-03-26 17:53:00,
2013-03-26 14:02:00,47.0,26.0,29.68,North,360,7.0,18.0,44,0.00,,,0.02,,2013-03-26 18:02:00,
2013-03-26 14:12:00,47.0,26.0,29.68,North,360,7.0,18.0,44,0.00,,,0.02,,2013-03-26 18:12:00,
2013-03-26 14:23:00,47.0,25.0,29.69,NNE,19,9.0,13.0,42,0.00,,,0.02,,2013-03-26 18:23:00,
2013-03-26 14:34:00,47.0,25.0,29.69,North,5,6.0,14.0,41,0.00,,,0.02,,2013-03-26 18:34:00,
2013-03-26 14:42:00,47.0,25.0,29.69,North,5,6.0,14.0,41,0.00,,,0.02,,2013-03-26 18:42:00,
2013-03-26 14:53:00,46.0,25.0,29.69,NNW,329,1.0,12.0,43,0.00,,,0.02,,2013-03-26 18:53:00,
2013-03-26 15:03:00,46.0,26.0,29.70,NNW,344,2.0,13.0,46,0.00,,,0.02,,2013-03-26 19:03:00,
2013-03-26 15:12:00,46.0,26.0,29.70,NNW,344,2.0,13.0,46,0.00,,,0.02,,2013-03-26 19:12:00,
2013-03-26 15:22:00,47.0,25.0,29.69,North,355,3.0,7.0,41,0.00,,,0.02,,2013-03-26 19:22:00,
2013-03-26 15:32:00,47.0,24.0,29.69,NE,38,6.0,12.0,40,0.00,,,0.02,,2013-03-26 19:32:00,
2013-03-26 15:42:00,47.0,24.0,29.69,NE,38,6.0,12.0,40,0.00,,,0.02,,2013-03-26 19:42:00,
2013-03-26 15:53:00,46.0,23.0,29.70,NNE,24,5.0,16.0,40,0.00,,,0.02,,2013-03-26 19:53:00,
2013-03-26 16:02:00,47.0,25.0,29.70,NNE,19,1.0,11.0,42,0.00,,,0.02,,2013-03-26 20:02:00,
2013-03-26 16:13:00,47.0,25.0,29.70,NNE,19,1.0,11.0,42,0.00,,,0.02,,2013-03-26 20:13:00,
2013-03-26 16:22:00,48.0,25.0,29.70,NW,304,6.0,16.0,41,0.00,,,0.02,,2013-03-26 20:22:00,
2013-03-26 16:32:00,47.0,27.0,29.70,East,83,5.0,15.0,45,0.00,,,0.02,,2013-03-26 20:32:00,
2013-03-26 16:42:00,47.0,27.0,29.70,East,83,5.0,15.0,45,0.00,,,0.02,,2013-03-26 20:42:00,
2013-03-26 16:52:00,45.0,28.0,29.71,North,360,10.0,16.0,51,0.00,,,0.02,,2013-03-26 20:52:00,
2013-03-26 17:02:00,46.0,29.0,29.71,ENE,65,5.0,13.0,52,0.00,,,0.02,,2013-03-26 21:02:00,
2013-03-26 17:12:00,46.0,29.0,29.71,ENE,65,5.0,13.0,52,0.00,,,0.02,,2013-03-26 21:12:00,
2013-03-26 17:22:00,46.0,29.0,29.71,NE,47,5.0,12.0,51,0.00,,,0.02,,2013-03-26 21:22:00,
2013-03-26 17:33:00,46.0,29.0,29.71,NE,47,5.0,12.0,51,0.00,,,0.02,,2013-03-26 21:33:00,
2013-03-26 17:43:00,46.0,29.0,29.71,NE,47,5.0,12.0,51,0.00,,,0.02,,2013-03-26 21:43:00,
2013-03-26 17:52:00,46.0,29.0,29.71,NE,47,5.0,12.0,51,0.00,,,0.02,,2013-03-26 21:52:00,
2013-03-26 18:23:00,45.0,25.0,29.72,North,350,4.0,9.0,45,0.00,,,0.02,,2013-03-26 22:23:00,
2013-03-26 18:33:00,45.0,25.0,29.72,North,350,4.0,9.0,45,0.00,,,0.02,,2013-03-26 22:33:00,
2013-03-26 18:42:00,45.0,25.0,29.72,North,350,4.0,9.0,45,0.00,,,0.02,,2013-03-26 22:42:00,
2013-03-26 18:52:00,45.0,25.0,29.72,North,350,4.0,9.0,45,0.00,,,0.02,,2013-03-26 22:52:00,
2013-03-26 19:22:00,44.0,25.0,29.75,NNE,28,1.0,12.0,47,0.00,,,0.01,,2013-03-26 23:22:00,
2013-03-26 19:32:00,44.0,26.0,29.76,NNW,334,0.0,9.0,49,0.00,,,0.00,,2013-03-26 23:32:00,
2013-03-26 19:43:00,44.0,26.0,29.76,NNW,334,0.0,9.0,49,0.00,,,0.00,,2013-03-26 23:43:00,
2013-03-26 19:53:00,43.0,27.0,29.76,North,5,1.0,6.0,52,0.00,,,0.00,,2013-03-26 23:53:00,
2013-03-26 20:02:00,43.0,27.0,29.77,West,275,1.0,4.0,53,0.00,,,0.00,,2013-03-27 00:02:00,
2013-03-26 20:12:00,43.0,27.0,29.77,West,275,1.0,4.0,53,0.00,,,0.00,,2013-03-27 00:12:00,
2013-03-26 20:22:00,42.0,27.0,29.78,WNW,292,1.0,5.0,55,0.00,,,0.00,,2013-03-27 00:22:00,
2013-03-26 20:32:00,42.0,27.0,29.78,WNW,302,1.0,5.0,56,0.00,,,0.00,,2013-03-27 00:32:00,
2013-03-26 20:42:00,42.0,27.0,29.78,WNW,302,1.0,5.0,56,0.00,,,0.00,,2013-03-27 00:42:00,
2013-03-26 20:52:00,41.0,28.0,29.78,NW,321,0.0,5.0,59,0.00,,,0.00,,2013-03-27 00:52:00,
2013-03-26 21:02:00,41.0,29.0,29.79,NW,323,1.0,4.0,61,0.00,,,0.00,,2013-03-27 01:02:00,
2013-03-26 21:12:00,41.0,29.0,29.79,NW,323,1.0,4.0,61,0.00,,,0.00,,2013-03-27 01:12:00,
2013-03-26 21:23:00,40.0,28.0,29.79,WNW,293,1.0,4.0,63,0.00,,,0.00,,2013-03-27 01:23:00,
2013-03-26 21:33:00,39.0,29.0,29.80,WNW,293,0.0,3.0,66,0.00,,,0.00,,2013-03-27 01:33:00,
2013-03-26 21:42:00,39.0,29.0,29.80,WNW,293,0.0,3.0,66,0.00,,,0.00,,2013-03-27 01:42:00,
2013-03-26 21:53:00,38.0,28.0,29.80,WNW,293,0.0,1.0,68,0.00,,,0.00,,2013-03-27 01:53:00,
2013-03-26 22:03:00,37.0,28.0,29.81,WNW,293,0.0,1.0,71,0.00,,,0.00,,2013-03-27 02:03:00,
2013-03-26 22:12:00,37.0,28.0,29.81,WNW,293,0.0,1.0,71,0.00,,,0.00,,2013-03-27 02:12:00,
2013-03-26 22:22:00,36.0,28.0,29.81,WNW,293,0.0,1.0,73,0.00,,,0.00,,2013-03-27 02:22:00,
2013-03-26 22:32:00,36.0,28.0,29.82,WNW,293,0.0,3.0,73,0.00,,,0.00,,2013-03-27 02:32:00,
2013-03-26 22:42:00,36.0,28.0,29.82,WNW,293,0.0,3.0,73,0.00,,,0.00,,2013-03-27 02:42:00,
2013-03-26 22:53:00,36.0,29.0,29.82,WNW,293,0.0,3.0,75,0.00,,,0.00,,2013-03-27 02:53:00,
2013-03-26 23:02:00,36.0,29.0,29.82,WNW,296,0.0,3.0,75,0.00,,,0.00,,2013-03-27 03:02:00,
2013-03-26 23:12:00,36.0,29.0,29.82,WNW,296,0.0,3.0,75,0.00,,,0.00,,2013-03-27 03:12:00,
2013-03-26 23:22:00,36.0,30.0,29.81,WNW,296,0.0,3.0,78,0.00,,,0.00,,2013-03-27 03:22:00,
2013-03-26 23:33:00,36.0,30.0,29.81,WNW,282,0.0,3.0,78,0.00,,,0.00,,2013-03-27 03:33:00,
2013-03-26 23:42:00,36.0,30.0,29.81,WNW,282,0.0,3.0,78,0.00,,,0.00,,2013-03-27 03:42:00,
2013-03-26 23:53:00,36.0,30.0,29.81,WNW,284,0.0,4.0,79,0.00,,,0.00,,2013-03-27 03:53:00,